Hlavní strana
METAR-TAF:

METAR-TAF

Letiště :

Bamako, Mali

zeměpisná šířka: 12-32N, zeměpisná délka: 007-57W, výška: 380 m

Aktuální stav počasí

Zpráva byla vytvořena před 41 minutami, v 21:00 UTC
Severovýchodní vítr 6 kt
Teplota 29°C
Vlhkost vzduchu 14%
Tlak 1014 hPa
Viditelnost 10 km a více
Žádná oblačnost pod 1500 m, nevyskytují se cumulonimby.

METAR: GABS 182100Z 05006KT CAVOK 29/M01 Q1014 NOSIG

Čas: 21:41 (21:41 UTC)

Předpověď počasí

Zpráva byla vytvořena před 4 hodinami a 41 minutami, v 17:00 UTC
Předpověď platná od 18 v 18 UTC do 19 v 24 UTC
Východoseverovýchodní vítr 8 kt
Viditelnost 10 km a více
Žádná oblačnost pod 1500 m, nevyskytují se cumulonimby.

TAF: GABS 181700Z 1818/1924 06008KT CAVOK

Stav a předpovědi počasí z více než 4 000 letišť (zprávy METAR a TAF).

Červené a žluté tečky na mapě představují dostupné meteorologické stanice.

Když kurzor umístíte na tečku, zobrazí se název stanice.

Pak kliknutím zobrazíte stav a předpověď počasí.

Chcete-li změnit mapu, kliknutím na zelené tlačítko se znaménkem +mapu přiblížíte, kliknutím na zelené tlačítko se znaménkem – mapu oddálíte a kliknutím na zelené šipky přejdete na sousední mapy.


METAR-TAF: